Terminal Aerodrome Forecast
Issued by NWS

Home | Current Version | Previous Version | Text Only | Print | Product List | Glossary On
Versions: 1 2 3 4 5 6 7 8 9 10 11 12 13 14 15 16 17 18 19 20 21 22 23 24 25 26 27 28
000
FTUS41 KALY 220500 CCA
TAFPSF
TAF COR
KPSF 220558Z 2206/2306 05007KT P6SM VCSH OVC008
      TEMPO 2206/2208 4SM BR OVC010
     FM220800 02007KT 4SM BR VCSH OVC007
     FM221500 01009KT 4SM -SHRA BR SCT008 OVC012
     FM222100 36014G21KT 3SM -RA BR OVC007=

USA.gov is the U.S. government's official web portal to all federal, state and local government web resources and services.